Airfield :
LOGIN :

Register | Disclaimer

   EN    FR    IT 

 










Legend :    VFR   Marginal VFR   IFR   Intensive IFR   Very Intensive IFR
Visi :
Ceiling :
>= 8 km
>= 3000ft
5 to 8 km
1000 to 3000 ft
1500m to 5 km
500 to 1000 ft
800 to 1500m
200 to 500 ft
< 800m
< 200 ft
Symbols :   Thunderstorms  Fog  Heavy snow  Heavy precipitations  Wind > 20 kt
SIGMETs :     Misc.  Thunderstorms  Icing  Turbulence  Mountain Waves  Volcanic Ashes






- Airport Elevation : 821 ft
- IATA code : LYS


LFLL - Lyon St Exupéry / Satolas

CURRENT METAR :
  • 151730Z 35014KT 9999 BKN009 01/00 Q1024 NOSIG

EXPIRED METARs :
  • 151700Z 35010KT 9999 BKN008 01/00 Q1024 TEMPO -SN
  • 151630Z 35010KT 9999 BKN008 OVC041 01/00 Q1023 TEMPO -SN
  • 151600Z 34009KT 8000 -SN BKN008 01/00 Q1023 TEMPO 3000 -SN
  • 151530Z 35008KT 9999 -RASN SCT008 OVC029 01/01 Q1023 TEMPO 3000 -SN BKN006
  • 151500Z 01009KT 2400 -SN FEW003 BKN007 01/00 Q1023 BECMG 4000 -SN

TAF AMD TAF LFLL
Valid from the 15 at 15:00 until the 16 at 18:00 UTC


151500Z 1515/1618 34011KT 8000 BKN012
TEMPO 1515/1521 2000 -SN BKN003
PROB30
TEMPO 1515/1517 4000 -SNRA BKN006
TEMPO 1522/1610 BKN006
BECMG 1610/1613 SCT012 OVC150



MET'MAP, your aeronautical weather chart ! - Copyright ORBIFLY December 2007 - Disclaimer

ORBIFLY MET'MAP TEAM :

Programming & Development : Alexandra Zaïnal
Concept & original design : Baudouin d'Aumeries
Assistance for programming : Marc-Olivier Méhu
Technical & hardware support : Manuel Goepfert

Contact : metmap@orbifly.com




SOURCES & CREDITS :

   NOAA